sensor_id;sensor_type;location;lat;lon;timestamp;P1;durP1;ratioP1;P2;durP2;ratioP2
37787;SDS011;23627;53.302;-6.362;2023-05-20T00:00:26;10.68;;;4.40;;
37787;SDS011;23627;53.302;-6.362;2023-05-20T00:02:52;8.65;;;3.75;;
37787;SDS011;23627;53.302;-6.362;2023-05-20T00:05:18;7.15;;;3.28;;
37787;SDS011;23627;53.302;-6.362;2023-05-20T00:07:43;8.07;;;3.90;;
37787;SDS011;23627;53.302;-6.362;2023-05-20T00:10:09;9.73;;;3.83;;
37787;SDS011;23627;53.302;-6.362;2023-05-20T00:12:36;9.65;;;3.75;;
37787;SDS011;23627;53.302;-6.362;2023-05-20T00:15:03;8.35;;;3.72;;
37787;SDS011;23627;53.302;-6.362;2023-05-20T00:17:29;9.07;;;3.88;;
37787;SDS011;23627;53.302;-6.362;2023-05-20T00:19:55;8.85;;;3.65;;
37787;SDS011;23627;53.302;-6.362;2023-05-20T00:22:20;7.65;;;3.67;;
37787;SDS011;23627;53.302;-6.362;2023-05-20T00:24:46;6.93;;;3.80;;
37787;SDS011;23627;53.302;-6.362;2023-05-20T00:27:12;9.52;;;3.80;;
37787;SDS011;23627;53.302;-6.362;2023-05-20T00:29:38;7.47;;;3.65;;
37787;SDS011;23627;53.302;-6.362;2023-05-20T00:32:04;6.65;;;3.33;;
37787;SDS011;23627;53.302;-6.362;2023-05-20T00:34:30;9.40;;;3.47;;
37787;SDS011;23627;53.302;-6.362;2023-05-20T00:36:55;9.63;;;3.63;;
37787;SDS011;23627;53.302;-6.362;2023-05-20T00:39:21;7.55;;;3.45;;
37787;SDS011;23627;53.302;-6.362;2023-05-20T00:41:48;9.07;;;3.65;;
37787;SDS011;23627;53.302;-6.362;2023-05-20T00:44:14;6.57;;;3.45;;
37787;SDS011;23627;53.302;-6.362;2023-05-20T00:46:39;9.23;;;3.92;;
37787;SDS011;23627;53.302;-6.362;2023-05-20T00:49:05;9.18;;;3.85;;
37787;SDS011;23627;53.302;-6.362;2023-05-20T00:51:31;6.95;;;3.20;;
37787;SDS011;23627;53.302;-6.362;2023-05-20T00:53:58;6.85;;;3.30;;
37787;SDS011;23627;53.302;-6.362;2023-05-20T00:56:23;8.10;;;3.47;;
37787;SDS011;23627;53.302;-6.362;2023-05-20T00:58:50;6.65;;;3.50;;
37787;SDS011;23627;53.302;-6.362;2023-05-20T01:01:16;9.63;;;4.10;;
37787;SDS011;23627;53.302;-6.362;2023-05-20T01:03:42;10.73;;;3.63;;
37787;SDS011;23627;53.302;-6.362;2023-05-20T01:06:07;12.27;;;4.03;;
37787;SDS011;23627;53.302;-6.362;2023-05-20T01:08:33;7.47;;;3.60;;
37787;SDS011;23627;53.302;-6.362;2023-05-20T01:11:07;7.60;;;3.47;;
37787;SDS011;23627;53.302;-6.362;2023-05-20T01:13:40;9.23;;;3.80;;
37787;SDS011;23627;53.302;-6.362;2023-05-20T01:16:11;5.90;;;3.60;;
37787;SDS011;23627;53.302;-6.362;2023-05-20T01:18:42;6.18;;;3.80;;
37787;SDS011;23627;53.302;-6.362;2023-05-20T01:21:10;6.47;;;3.30;;
37787;SDS011;23627;53.302;-6.362;2023-05-20T01:23:38;6.85;;;3.30;;
37787;SDS011;23627;53.302;-6.362;2023-05-20T01:26:05;5.97;;;3.10;;
37787;SDS011;23627;53.302;-6.362;2023-05-20T01:28:32;6.55;;;3.40;;
37787;SDS011;23627;53.302;-6.362;2023-05-20T01:31:00;7.95;;;3.17;;
37787;SDS011;23627;53.302;-6.362;2023-05-20T01:33:29;8.23;;;3.63;;
37787;SDS011;23627;53.302;-6.362;2023-05-20T01:35:56;8.65;;;3.53;;
37787;SDS011;23627;53.302;-6.362;2023-05-20T01:38:23;7.43;;;3.63;;
37787;SDS011;23627;53.302;-6.362;2023-05-20T01:40:50;8.60;;;3.90;;
37787;SDS011;23627;53.302;-6.362;2023-05-20T01:43:16;6.55;;;3.10;;
37787;SDS011;23627;53.302;-6.362;2023-05-20T01:45:42;9.98;;;3.70;;
37787;SDS011;23627;53.302;-6.362;2023-05-20T01:48:09;9.70;;;3.70;;
37787;SDS011;23627;53.302;-6.362;2023-05-20T01:50:36;7.05;;;3.47;;
37787;SDS011;23627;53.302;-6.362;2023-05-20T01:53:02;8.98;;;3.65;;
37787;SDS011;23627;53.302;-6.362;2023-05-20T01:55:28;6.65;;;3.50;;
37787;SDS011;23627;53.302;-6.362;2023-05-20T01:57:54;6.45;;;3.10;;
37787;SDS011;23627;53.302;-6.362;2023-05-20T02:00:19;7.63;;;3.38;;
37787;SDS011;23627;53.302;-6.362;2023-05-20T02:02:45;5.72;;;3.30;;
37787;SDS011;23627;53.302;-6.362;2023-05-20T02:05:11;9.00;;;3.78;;
37787;SDS011;23627;53.302;-6.362;2023-05-20T02:07:37;6.57;;;3.35;;
37787;SDS011;23627;53.302;-6.362;2023-05-20T02:10:03;6.97;;;3.42;;
37787;SDS011;23627;53.302;-6.362;2023-05-20T02:12:29;7.07;;;3.35;;
37787;SDS011;23627;53.302;-6.362;2023-05-20T02:14:55;8.10;;;3.33;;
37787;SDS011;23627;53.302;-6.362;2023-05-20T02:17:21;7.47;;;3.30;;
37787;SDS011;23627;53.302;-6.362;2023-05-20T02:19:46;7.95;;;3.65;;
37787;SDS011;23627;53.302;-6.362;2023-05-20T02:22:12;9.23;;;3.38;;
37787;SDS011;23627;53.302;-6.362;2023-05-20T02:24:38;8.27;;;3.40;;
37787;SDS011;23627;53.302;-6.362;2023-05-20T02:27:04;5.78;;;2.97;;
37787;SDS011;23627;53.302;-6.362;2023-05-20T02:29:31;6.38;;;3.05;;
37787;SDS011;23627;53.302;-6.362;2023-05-20T02:31:57;6.78;;;3.42;;
37787;SDS011;23627;53.302;-6.362;2023-05-20T02:34:22;8.30;;;3.25;;
37787;SDS011;23627;53.302;-6.362;2023-05-20T02:36:50;7.07;;;3.55;;
37787;SDS011;23627;53.302;-6.362;2023-05-20T02:39:16;6.90;;;3.30;;
37787;SDS011;23627;53.302;-6.362;2023-05-20T02:41:42;8.32;;;3.50;;
37787;SDS011;23627;53.302;-6.362;2023-05-20T02:44:08;7.85;;;3.08;;
37787;SDS011;23627;53.302;-6.362;2023-05-20T02:46:34;7.70;;;3.65;;
37787;SDS011;23627;53.302;-6.362;2023-05-20T02:48:59;6.38;;;3.15;;
37787;SDS011;23627;53.302;-6.362;2023-05-20T02:51:25;10.10;;;4.10;;
37787;SDS011;23627;53.302;-6.362;2023-05-20T02:53:51;7.65;;;3.40;;
37787;SDS011;23627;53.302;-6.362;2023-05-20T02:56:17;6.82;;;3.20;;
37787;SDS011;23627;53.302;-6.362;2023-05-20T02:58:46;9.25;;;3.72;;
37787;SDS011;23627;53.302;-6.362;2023-05-20T03:01:12;8.43;;;3.22;;
37787;SDS011;23627;53.302;-6.362;2023-05-20T03:03:38;6.25;;;3.33;;
37787;SDS011;23627;53.302;-6.362;2023-05-20T03:06:04;6.13;;;3.13;;
37787;SDS011;23627;53.302;-6.362;2023-05-20T03:08:31;7.50;;;3.55;;
37787;SDS011;23627;53.302;-6.362;2023-05-20T03:10:58;9.18;;;3.40;;
37787;SDS011;23627;53.302;-6.362;2023-05-20T03:13:25;7.43;;;3.45;;
37787;SDS011;23627;53.302;-6.362;2023-05-20T03:15:50;6.07;;;3.17;;
37787;SDS011;23627;53.302;-6.362;2023-05-20T03:18:16;5.30;;;3.00;;
37787;SDS011;23627;53.302;-6.362;2023-05-20T03:20:42;7.50;;;3.00;;
37787;SDS011;23627;53.302;-6.362;2023-05-20T03:23:08;7.13;;;3.08;;
37787;SDS011;23627;53.302;-6.362;2023-05-20T03:25:35;8.50;;;3.50;;
37787;SDS011;23627;53.302;-6.362;2023-05-20T03:28:01;9.48;;;3.38;;
37787;SDS011;23627;53.302;-6.362;2023-05-20T03:30:27;6.13;;;2.92;;
37787;SDS011;23627;53.302;-6.362;2023-05-20T03:32:54;8.00;;;3.53;;
37787;SDS011;23627;53.302;-6.362;2023-05-20T03:35:21;8.23;;;3.40;;
37787;SDS011;23627;53.302;-6.362;2023-05-20T03:37:47;7.15;;;2.90;;
37787;SDS011;23627;53.302;-6.362;2023-05-20T03:40:15;5.57;;;2.78;;
37787;SDS011;23627;53.302;-6.362;2023-05-20T03:42:41;6.85;;;3.00;;
37787;SDS011;23627;53.302;-6.362;2023-05-20T03:45:07;6.47;;;3.10;;
37787;SDS011;23627;53.302;-6.362;2023-05-20T03:47:33;6.75;;;3.38;;
37787;SDS011;23627;53.302;-6.362;2023-05-20T03:49:59;6.53;;;3.17;;
37787;SDS011;23627;53.302;-6.362;2023-05-20T03:52:25;9.32;;;3.13;;
37787;SDS011;23627;53.302;-6.362;2023-05-20T03:54:50;7.65;;;2.95;;
37787;SDS011;23627;53.302;-6.362;2023-05-20T03:57:17;7.53;;;3.30;;
37787;SDS011;23627;53.302;-6.362;2023-05-20T03:59:43;7.60;;;2.97;;
37787;SDS011;23627;53.302;-6.362;2023-05-20T04:02:09;9.13;;;3.35;;
37787;SDS011;23627;53.302;-6.362;2023-05-20T04:04:36;7.93;;;3.45;;
37787;SDS011;23627;53.302;-6.362;2023-05-20T04:07:02;7.47;;;3.25;;
37787;SDS011;23627;53.302;-6.362;2023-05-20T04:09:29;7.47;;;3.22;;
37787;SDS011;23627;53.302;-6.362;2023-05-20T04:11:55;7.03;;;3.00;;
37787;SDS011;23627;53.302;-6.362;2023-05-20T04:14:21;6.82;;;2.65;;
37787;SDS011;23627;53.302;-6.362;2023-05-20T04:16:46;6.97;;;3.13;;
37787;SDS011;23627;53.302;-6.362;2023-05-20T04:19:14;8.02;;;3.20;;
37787;SDS011;23627;53.302;-6.362;2023-05-20T04:21:41;6.53;;;2.97;;
37787;SDS011;23627;53.302;-6.362;2023-05-20T04:24:08;6.88;;;3.15;;
37787;SDS011;23627;53.302;-6.362;2023-05-20T04:26:33;6.63;;;3.00;;
37787;SDS011;23627;53.302;-6.362;2023-05-20T04:29:00;7.40;;;2.90;;
37787;SDS011;23627;53.302;-6.362;2023-05-20T04:31:28;9.02;;;3.35;;
37787;SDS011;23627;53.302;-6.362;2023-05-20T04:33:55;6.05;;;3.10;;
37787;SDS011;23627;53.302;-6.362;2023-05-20T04:36:21;7.35;;;3.00;;
37787;SDS011;23627;53.302;-6.362;2023-05-20T04:38:52;7.03;;;3.30;;
37787;SDS011;23627;53.302;-6.362;2023-05-20T04:41:19;6.80;;;3.03;;
37787;SDS011;23627;53.302;-6.362;2023-05-20T04:43:44;6.90;;;2.85;;
37787;SDS011;23627;53.302;-6.362;2023-05-20T04:46:10;7.25;;;3.38;;
37787;SDS011;23627;53.302;-6.362;2023-05-20T04:48:36;6.88;;;2.78;;
37787;SDS011;23627;53.302;-6.362;2023-05-20T04:51:02;8.10;;;2.92;;
37787;SDS011;23627;53.302;-6.362;2023-05-20T04:53:28;7.32;;;2.92;;
37787;SDS011;23627;53.302;-6.362;2023-05-20T04:55:57;6.43;;;2.97;;
37787;SDS011;23627;53.302;-6.362;2023-05-20T04:58:24;7.55;;;2.85;;
37787;SDS011;23627;53.302;-6.362;2023-05-20T05:00:50;7.25;;;3.03;;
37787;SDS011;23627;53.302;-6.362;2023-05-20T05:03:16;8.90;;;3.30;;
37787;SDS011;23627;53.302;-6.362;2023-05-20T05:05:42;5.45;;;2.80;;
37787;SDS011;23627;53.302;-6.362;2023-05-20T05:08:08;7.40;;;3.13;;
37787;SDS011;23627;53.302;-6.362;2023-05-20T05:10:37;5.80;;;2.78;;
37787;SDS011;23627;53.302;-6.362;2023-05-20T05:13:03;5.10;;;2.70;;
37787;SDS011;23627;53.302;-6.362;2023-05-20T05:15:29;7.05;;;3.03;;
37787;SDS011;23627;53.302;-6.362;2023-05-20T05:17:55;6.45;;;2.83;;
37787;SDS011;23627;53.302;-6.362;2023-05-20T05:20:20;6.50;;;2.85;;
37787;SDS011;23627;53.302;-6.362;2023-05-20T05:22:46;8.35;;;3.10;;
37787;SDS011;23627;53.302;-6.362;2023-05-20T05:25:14;6.65;;;3.00;;
37787;SDS011;23627;53.302;-6.362;2023-05-20T05:27:40;6.43;;;2.97;;
37787;SDS011;23627;53.302;-6.362;2023-05-20T05:30:06;8.60;;;3.05;;
37787;SDS011;23627;53.302;-6.362;2023-05-20T05:32:32;5.90;;;2.67;;
37787;SDS011;23627;53.302;-6.362;2023-05-20T05:34:59;6.20;;;2.95;;
37787;SDS011;23627;53.302;-6.362;2023-05-20T05:37:24;7.85;;;3.28;;
37787;SDS011;23627;53.302;-6.362;2023-05-20T05:39:50;6.80;;;3.05;;
37787;SDS011;23627;53.302;-6.362;2023-05-20T05:42:16;6.00;;;2.65;;
37787;SDS011;23627;53.302;-6.362;2023-05-20T05:44:42;8.68;;;3.58;;
37787;SDS011;23627;53.302;-6.362;2023-05-20T05:47:08;7.95;;;3.00;;
37787;SDS011;23627;53.302;-6.362;2023-05-20T05:49:35;8.00;;;2.92;;
37787;SDS011;23627;53.302;-6.362;2023-05-20T05:52:01;7.22;;;3.08;;
37787;SDS011;23627;53.302;-6.362;2023-05-20T05:54:27;8.43;;;3.15;;
37787;SDS011;23627;53.302;-6.362;2023-05-20T05:56:53;6.07;;;2.67;;
37787;SDS011;23627;53.302;-6.362;2023-05-20T05:59:20;5.28;;;3.05;;
37787;SDS011;23627;53.302;-6.362;2023-05-20T06:01:46;8.27;;;2.85;;
37787;SDS011;23627;53.302;-6.362;2023-05-20T06:04:12;6.72;;;3.05;;
37787;SDS011;23627;53.302;-6.362;2023-05-20T06:06:39;10.30;;;3.03;;
37787;SDS011;23627;53.302;-6.362;2023-05-20T06:09:05;6.80;;;3.10;;
37787;SDS011;23627;53.302;-6.362;2023-05-20T06:11:31;8.55;;;2.90;;
37787;SDS011;23627;53.302;-6.362;2023-05-20T06:13:56;6.38;;;2.97;;
37787;SDS011;23627;53.302;-6.362;2023-05-20T06:16:22;9.05;;;2.90;;
37787;SDS011;23627;53.302;-6.362;2023-05-20T06:18:48;9.50;;;2.75;;
37787;SDS011;23627;53.302;-6.362;2023-05-20T06:21:14;6.50;;;2.70;;
37787;SDS011;23627;53.302;-6.362;2023-05-20T06:23:41;6.28;;;3.00;;
37787;SDS011;23627;53.302;-6.362;2023-05-20T06:26:06;7.45;;;2.92;;
37787;SDS011;23627;53.302;-6.362;2023-05-20T06:28:32;6.65;;;2.95;;
37787;SDS011;23627;53.302;-6.362;2023-05-20T06:30:58;6.95;;;3.05;;
37787;SDS011;23627;53.302;-6.362;2023-05-20T06:33:24;7.75;;;2.83;;
37787;SDS011;23627;53.302;-6.362;2023-05-20T06:35:54;6.82;;;2.72;;
37787;SDS011;23627;53.302;-6.362;2023-05-20T06:38:21;6.65;;;2.80;;
37787;SDS011;23627;53.302;-6.362;2023-05-20T06:40:47;6.07;;;2.92;;
37787;SDS011;23627;53.302;-6.362;2023-05-20T06:43:14;9.25;;;2.92;;
37787;SDS011;23627;53.302;-6.362;2023-05-20T06:45:40;7.45;;;2.95;;
37787;SDS011;23627;53.302;-6.362;2023-05-20T06:48:06;6.60;;;2.70;;
37787;SDS011;23627;53.302;-6.362;2023-05-20T06:50:32;6.75;;;2.80;;
37787;SDS011;23627;53.302;-6.362;2023-05-20T06:52:58;7.55;;;3.15;;
37787;SDS011;23627;53.302;-6.362;2023-05-20T06:55:25;6.00;;;2.55;;
37787;SDS011;23627;53.302;-6.362;2023-05-20T06:57:51;6.53;;;2.85;;
37787;SDS011;23627;53.302;-6.362;2023-05-20T07:00:17;7.65;;;2.80;;
37787;SDS011;23627;53.302;-6.362;2023-05-20T07:02:43;10.35;;;3.10;;
37787;SDS011;23627;53.302;-6.362;2023-05-20T07:05:09;8.90;;;2.83;;
37787;SDS011;23627;53.302;-6.362;2023-05-20T07:07:35;6.63;;;2.95;;
37787;SDS011;23627;53.302;-6.362;2023-05-20T07:10:01;8.13;;;2.75;;
37787;SDS011;23627;53.302;-6.362;2023-05-20T07:12:29;7.30;;;2.90;;
37787;SDS011;23627;53.302;-6.362;2023-05-20T07:14:55;7.65;;;2.70;;
37787;SDS011;23627;53.302;-6.362;2023-05-20T07:17:21;7.07;;;2.90;;
37787;SDS011;23627;53.302;-6.362;2023-05-20T07:19:47;6.80;;;2.83;;
37787;SDS011;23627;53.302;-6.362;2023-05-20T07:22:13;7.03;;;2.85;;
37787;SDS011;23627;53.302;-6.362;2023-05-20T07:24:39;7.07;;;2.60;;
37787;SDS011;23627;53.302;-6.362;2023-05-20T07:27:05;6.15;;;2.80;;
37787;SDS011;23627;53.302;-6.362;2023-05-20T07:29:30;8.18;;;3.03;;
37787;SDS011;23627;53.302;-6.362;2023-05-20T07:31:56;5.68;;;2.63;;
37787;SDS011;23627;53.302;-6.362;2023-05-20T07:34:22;8.32;;;3.22;;
37787;SDS011;23627;53.302;-6.362;2023-05-20T07:36:48;6.82;;;2.70;;
37787;SDS011;23627;53.302;-6.362;2023-05-20T07:39:15;7.32;;;2.85;;
37787;SDS011;23627;53.302;-6.362;2023-05-20T07:41:41;7.00;;;2.70;;
37787;SDS011;23627;53.302;-6.362;2023-05-20T07:44:06;6.00;;;2.47;;
37787;SDS011;23627;53.302;-6.362;2023-05-20T07:46:33;6.03;;;2.67;;
37787;SDS011;23627;53.302;-6.362;2023-05-20T07:48:59;8.45;;;3.20;;
37787;SDS011;23627;53.302;-6.362;2023-05-20T07:51:24;5.72;;;2.30;;
37787;SDS011;23627;53.302;-6.362;2023-05-20T07:53:50;8.57;;;2.88;;
37787;SDS011;23627;53.302;-6.362;2023-05-20T07:56:16;5.88;;;2.35;;
37787;SDS011;23627;53.302;-6.362;2023-05-20T07:58:42;6.63;;;2.65;;
37787;SDS011;23627;53.302;-6.362;2023-05-20T08:01:15;7.13;;;2.55;;
37787;SDS011;23627;53.302;-6.362;2023-05-20T08:03:41;7.07;;;2.25;;
37787;SDS011;23627;53.302;-6.362;2023-05-20T08:06:07;6.97;;;2.60;;
37787;SDS011;23627;53.302;-6.362;2023-05-20T08:08:32;7.63;;;2.60;;
37787;SDS011;23627;53.302;-6.362;2023-05-20T08:10:58;5.13;;;2.53;;
37787;SDS011;23627;53.302;-6.362;2023-05-20T08:13:25;6.30;;;2.60;;
37787;SDS011;23627;53.302;-6.362;2023-05-20T08:15:54;6.57;;;2.70;;
37787;SDS011;23627;53.302;-6.362;2023-05-20T08:18:20;6.03;;;2.63;;
37787;SDS011;23627;53.302;-6.362;2023-05-20T08:20:47;6.25;;;2.58;;
37787;SDS011;23627;53.302;-6.362;2023-05-20T08:23:12;3.92;;;2.42;;
37787;SDS011;23627;53.302;-6.362;2023-05-20T08:25:39;6.40;;;2.38;;
37787;SDS011;23627;53.302;-6.362;2023-05-20T08:28:10;6.82;;;2.25;;
37787;SDS011;23627;53.302;-6.362;2023-05-20T08:30:36;6.97;;;2.50;;
37787;SDS011;23627;53.302;-6.362;2023-05-20T08:33:02;8.77;;;2.80;;
37787;SDS011;23627;53.302;-6.362;2023-05-20T08:35:28;7.38;;;2.90;;
37787;SDS011;23627;53.302;-6.362;2023-05-20T08:37:54;5.53;;;2.47;;
37787;SDS011;23627;53.302;-6.362;2023-05-20T08:40:20;6.20;;;2.67;;
37787;SDS011;23627;53.302;-6.362;2023-05-20T08:42:47;6.80;;;2.58;;
37787;SDS011;23627;53.302;-6.362;2023-05-20T08:45:16;7.20;;;2.70;;
37787;SDS011;23627;53.302;-6.362;2023-05-20T08:47:43;8.18;;;2.60;;
37787;SDS011;23627;53.302;-6.362;2023-05-20T08:50:09;7.82;;;2.70;;
37787;SDS011;23627;53.302;-6.362;2023-05-20T08:52:36;5.95;;;2.50;;
37787;SDS011;23627;53.302;-6.362;2023-05-20T08:55:31;6.32;;;2.50;;
37787;SDS011;23627;53.302;-6.362;2023-05-20T08:58:10;5.43;;;2.25;;
37787;SDS011;23627;53.302;-6.362;2023-05-20T09:00:37;8.27;;;2.50;;
37787;SDS011;23627;53.302;-6.362;2023-05-20T09:03:03;8.63;;;2.70;;
37787;SDS011;23627;53.302;-6.362;2023-05-20T09:05:29;7.55;;;2.40;;
37787;SDS011;23627;53.302;-6.362;2023-05-20T09:08:13;7.25;;;2.60;;
37787;SDS011;23627;53.302;-6.362;2023-05-20T09:10:39;5.38;;;2.53;;
37787;SDS011;23627;53.302;-6.362;2023-05-20T09:13:06;7.60;;;2.45;;
37787;SDS011;23627;53.302;-6.362;2023-05-20T09:15:33;6.18;;;2.30;;
37787;SDS011;23627;53.302;-6.362;2023-05-20T09:18:00;5.50;;;2.30;;
37787;SDS011;23627;53.302;-6.362;2023-05-20T09:20:27;6.50;;;2.67;;
37787;SDS011;23627;53.302;-6.362;2023-05-20T09:22:57;8.55;;;2.85;;
37787;SDS011;23627;53.302;-6.362;2023-05-20T09:25:27;5.82;;;2.25;;
37787;SDS011;23627;53.302;-6.362;2023-05-20T09:27:56;7.47;;;2.75;;
37787;SDS011;23627;53.302;-6.362;2023-05-20T09:30:22;6.00;;;2.40;;
37787;SDS011;23627;53.302;-6.362;2023-05-20T09:32:55;4.20;;;2.20;;
37787;SDS011;23627;53.302;-6.362;2023-05-20T09:35:22;7.03;;;2.50;;
37787;SDS011;23627;53.302;-6.362;2023-05-20T09:37:53;6.72;;;2.55;;
37787;SDS011;23627;53.302;-6.362;2023-05-20T09:40:24;5.50;;;2.50;;
37787;SDS011;23627;53.302;-6.362;2023-05-20T09:43:01;6.85;;;2.70;;
37787;SDS011;23627;53.302;-6.362;2023-05-20T09:45:28;8.90;;;2.72;;
37787;SDS011;23627;53.302;-6.362;2023-05-20T09:47:54;8.50;;;2.47;;
37787;SDS011;23627;53.302;-6.362;2023-05-20T09:50:21;6.65;;;2.60;;
37787;SDS011;23627;53.302;-6.362;2023-05-20T09:52:49;30.70;;;4.28;;
37787;SDS011;23627;53.302;-6.362;2023-05-20T09:55:21;10.13;;;3.05;;
37787;SDS011;23627;53.302;-6.362;2023-05-20T09:57:48;13.40;;;3.22;;
37787;SDS011;23627;53.302;-6.362;2023-05-20T10:00:15;13.88;;;2.95;;
37787;SDS011;23627;53.302;-6.362;2023-05-20T10:02:50;9.65;;;2.70;;
37787;SDS011;23627;53.302;-6.362;2023-05-20T10:05:21;8.98;;;2.85;;
37787;SDS011;23627;53.302;-6.362;2023-05-20T10:16:40;8.13;;;2.58;;
37787;SDS011;23627;53.302;-6.362;2023-05-20T10:21:59;5.85;;;2.50;;
37787;SDS011;23627;53.302;-6.362;2023-05-20T10:24:30;8.50;;;3.05;;
37787;SDS011;23627;53.302;-6.362;2023-05-20T10:27:06;8.25;;;2.95;;
37787;SDS011;23627;53.302;-6.362;2023-05-20T10:29:49;7.22;;;2.90;;
37787;SDS011;23627;53.302;-6.362;2023-05-20T10:32:29;8.77;;;2.88;;
37787;SDS011;23627;53.302;-6.362;2023-05-20T10:37:26;5.55;;;2.45;;
37787;SDS011;23627;53.302;-6.362;2023-05-20T10:42:49;8.05;;;3.03;;
37787;SDS011;23627;53.302;-6.362;2023-05-20T10:45:25;6.38;;;2.92;;
37787;SDS011;23627;53.302;-6.362;2023-05-20T10:47:55;7.65;;;2.83;;
37787;SDS011;23627;53.302;-6.362;2023-05-20T10:50:33;6.40;;;2.58;;
37787;SDS011;23627;53.302;-6.362;2023-05-20T10:53:06;7.53;;;2.90;;
37787;SDS011;23627;53.302;-6.362;2023-05-20T10:55:37;7.13;;;3.00;;
37787;SDS011;23627;53.302;-6.362;2023-05-20T10:58:04;7.65;;;2.75;;
37787;SDS011;23627;53.302;-6.362;2023-05-20T11:00:33;6.97;;;3.00;;
37787;SDS011;23627;53.302;-6.362;2023-05-20T11:03:00;9.32;;;2.55;;
37787;SDS011;23627;53.302;-6.362;2023-05-20T11:05:27;8.50;;;3.25;;
37787;SDS011;23627;53.302;-6.362;2023-05-20T11:08:00;5.75;;;2.72;;
37787;SDS011;23627;53.302;-6.362;2023-05-20T11:10:27;7.57;;;2.92;;
37787;SDS011;23627;53.302;-6.362;2023-05-20T11:12:53;6.60;;;3.15;;
37787;SDS011;23627;53.302;-6.362;2023-05-20T11:15:21;6.68;;;2.90;;
37787;SDS011;23627;53.302;-6.362;2023-05-20T11:17:52;6.82;;;3.05;;
37787;SDS011;23627;53.302;-6.362;2023-05-20T11:20:18;7.97;;;2.85;;
37787;SDS011;23627;53.302;-6.362;2023-05-20T11:22:44;10.55;;;3.25;;
37787;SDS011;23627;53.302;-6.362;2023-05-20T11:25:10;10.15;;;3.35;;
37787;SDS011;23627;53.302;-6.362;2023-05-20T11:27:39;6.68;;;2.90;;
37787;SDS011;23627;53.302;-6.362;2023-05-20T11:30:05;5.65;;;2.70;;
37787;SDS011;23627;53.302;-6.362;2023-05-20T11:32:32;6.63;;;3.20;;
37787;SDS011;23627;53.302;-6.362;2023-05-20T11:34:57;7.32;;;2.80;;
37787;SDS011;23627;53.302;-6.362;2023-05-20T11:37:23;8.82;;;3.10;;
37787;SDS011;23627;53.302;-6.362;2023-05-20T11:40:01;5.05;;;2.65;;
37787;SDS011;23627;53.302;-6.362;2023-05-20T11:42:31;8.10;;;3.00;;
37787;SDS011;23627;53.302;-6.362;2023-05-20T11:45:00;7.60;;;3.10;;
37787;SDS011;23627;53.302;-6.362;2023-05-20T11:47:26;7.10;;;2.70;;
37787;SDS011;23627;53.302;-6.362;2023-05-20T11:49:52;6.60;;;3.05;;
37787;SDS011;23627;53.302;-6.362;2023-05-20T11:52:20;7.43;;;2.95;;
37787;SDS011;23627;53.302;-6.362;2023-05-20T11:54:54;6.45;;;2.80;;
37787;SDS011;23627;53.302;-6.362;2023-05-20T11:57:20;6.43;;;3.10;;
37787;SDS011;23627;53.302;-6.362;2023-05-20T11:59:47;6.93;;;3.00;;
37787;SDS011;23627;53.302;-6.362;2023-05-20T12:02:13;8.00;;;3.40;;
37787;SDS011;23627;53.302;-6.362;2023-05-20T12:08:01;7.00;;;3.20;;
37787;SDS011;23627;53.302;-6.362;2023-05-20T12:10:28;6.93;;;2.95;;
37787;SDS011;23627;53.302;-6.362;2023-05-20T12:12:54;7.35;;;2.83;;
37787;SDS011;23627;53.302;-6.362;2023-05-20T12:15:19;6.50;;;3.10;;
37787;SDS011;23627;53.302;-6.362;2023-05-20T12:17:46;6.53;;;2.92;;
37787;SDS011;23627;53.302;-6.362;2023-05-20T12:20:14;6.63;;;3.10;;
37787;SDS011;23627;53.302;-6.362;2023-05-20T12:22:41;7.22;;;3.00;;
37787;SDS011;23627;53.302;-6.362;2023-05-20T12:25:09;7.43;;;3.20;;
37787;SDS011;23627;53.302;-6.362;2023-05-20T12:27:40;6.07;;;3.15;;
37787;SDS011;23627;53.302;-6.362;2023-05-20T12:30:06;5.82;;;2.88;;
37787;SDS011;23627;53.302;-6.362;2023-05-20T12:32:34;7.20;;;2.88;;
37787;SDS011;23627;53.302;-6.362;2023-05-20T12:35:01;6.05;;;2.70;;
37787;SDS011;23627;53.302;-6.362;2023-05-20T12:37:26;5.97;;;3.05;;
37787;SDS011;23627;53.302;-6.362;2023-05-20T12:39:52;5.80;;;2.75;;
37787;SDS011;23627;53.302;-6.362;2023-05-20T12:42:18;6.20;;;3.00;;
37787;SDS011;23627;53.302;-6.362;2023-05-20T12:44:44;6.38;;;2.92;;
37787;SDS011;23627;53.302;-6.362;2023-05-20T12:47:09;7.03;;;3.47;;
37787;SDS011;23627;53.302;-6.362;2023-05-20T12:49:35;8.10;;;2.95;;
37787;SDS011;23627;53.302;-6.362;2023-05-20T12:52:01;5.22;;;2.85;;
37787;SDS011;23627;53.302;-6.362;2023-05-20T12:54:27;5.70;;;2.90;;
37787;SDS011;23627;53.302;-6.362;2023-05-20T12:56:55;6.68;;;3.10;;
37787;SDS011;23627;53.302;-6.362;2023-05-20T12:59:22;6.30;;;2.92;;
37787;SDS011;23627;53.302;-6.362;2023-05-20T13:01:47;6.78;;;2.80;;
37787;SDS011;23627;53.302;-6.362;2023-05-20T13:04:13;6.03;;;2.90;;
37787;SDS011;23627;53.302;-6.362;2023-05-20T13:06:39;7.57;;;3.38;;
37787;SDS011;23627;53.302;-6.362;2023-05-20T13:09:06;8.75;;;3.45;;
37787;SDS011;23627;53.302;-6.362;2023-05-20T13:11:31;7.20;;;2.85;;
37787;SDS011;23627;53.302;-6.362;2023-05-20T13:13:57;7.47;;;3.30;;
37787;SDS011;23627;53.302;-6.362;2023-05-20T13:16:23;5.50;;;2.85;;
37787;SDS011;23627;53.302;-6.362;2023-05-20T13:18:49;8.40;;;2.92;;
37787;SDS011;23627;53.302;-6.362;2023-05-20T13:21:16;7.85;;;2.88;;
37787;SDS011;23627;53.302;-6.362;2023-05-20T13:23:42;5.50;;;2.70;;
37787;SDS011;23627;53.302;-6.362;2023-05-20T13:26:07;5.93;;;3.05;;
37787;SDS011;23627;53.302;-6.362;2023-05-20T13:28:33;5.60;;;2.90;;
37787;SDS011;23627;53.302;-6.362;2023-05-20T13:31:01;5.90;;;3.10;;
37787;SDS011;23627;53.302;-6.362;2023-05-20T13:33:30;6.68;;;3.00;;
37787;SDS011;23627;53.302;-6.362;2023-05-20T13:35:56;6.82;;;3.30;;
37787;SDS011;23627;53.302;-6.362;2023-05-20T13:38:22;8.05;;;2.90;;
37787;SDS011;23627;53.302;-6.362;2023-05-20T13:40:47;7.80;;;3.22;;
37787;SDS011;23627;53.302;-6.362;2023-05-20T13:43:13;4.57;;;2.75;;
37787;SDS011;23627;53.302;-6.362;2023-05-20T13:45:39;7.45;;;3.00;;
37787;SDS011;23627;53.302;-6.362;2023-05-20T13:48:06;6.55;;;3.00;;
37787;SDS011;23627;53.302;-6.362;2023-05-20T13:50:31;7.22;;;3.10;;
37787;SDS011;23627;53.302;-6.362;2023-05-20T13:52:57;6.72;;;3.00;;
37787;SDS011;23627;53.302;-6.362;2023-05-20T13:55:23;6.50;;;3.30;;
37787;SDS011;23627;53.302;-6.362;2023-05-20T13:57:49;6.20;;;3.17;;
37787;SDS011;23627;53.302;-6.362;2023-05-20T14:00:17;7.30;;;3.17;;
37787;SDS011;23627;53.302;-6.362;2023-05-20T14:02:43;7.57;;;3.17;;
37787;SDS011;23627;53.302;-6.362;2023-05-20T14:05:08;5.03;;;3.00;;
37787;SDS011;23627;53.302;-6.362;2023-05-20T14:07:34;5.60;;;2.88;;
37787;SDS011;23627;53.302;-6.362;2023-05-20T14:10:00;7.45;;;3.20;;
37787;SDS011;23627;53.302;-6.362;2023-05-20T14:12:26;6.00;;;3.15;;
37787;SDS011;23627;53.302;-6.362;2023-05-20T14:14:52;6.68;;;3.50;;
37787;SDS011;23627;53.302;-6.362;2023-05-20T14:17:18;6.70;;;3.17;;
37787;SDS011;23627;53.302;-6.362;2023-05-20T14:19:43;9.52;;;3.50;;
37787;SDS011;23627;53.302;-6.362;2023-05-20T14:22:09;7.53;;;3.35;;
37787;SDS011;23627;53.302;-6.362;2023-05-20T14:24:37;6.03;;;3.00;;
37787;SDS011;23627;53.302;-6.362;2023-05-20T14:27:03;6.22;;;3.15;;
37787;SDS011;23627;53.302;-6.362;2023-05-20T14:29:29;6.05;;;2.83;;
37787;SDS011;23627;53.302;-6.362;2023-05-20T14:31:55;7.65;;;3.28;;
37787;SDS011;23627;53.302;-6.362;2023-05-20T14:34:21;6.80;;;2.80;;
37787;SDS011;23627;53.302;-6.362;2023-05-20T14:36:46;9.00;;;3.35;;
37787;SDS011;23627;53.302;-6.362;2023-05-20T14:39:12;6.30;;;3.17;;
37787;SDS011;23627;53.302;-6.362;2023-05-20T14:41:38;7.15;;;3.28;;
37787;SDS011;23627;53.302;-6.362;2023-05-20T14:44:03;7.07;;;3.53;;
37787;SDS011;23627;53.302;-6.362;2023-05-20T14:46:29;9.18;;;3.15;;
37787;SDS011;23627;53.302;-6.362;2023-05-20T14:48:55;9.27;;;3.67;;
37787;SDS011;23627;53.302;-6.362;2023-05-20T14:51:21;5.68;;;3.08;;